createdAt,value
2018-11-02T00:04:34.679Z,17.57
2018-11-02T00:09:38.400Z,17.83
2018-11-02T00:14:41.854Z,17.30
2018-11-02T00:19:45.125Z,19.73
2018-11-02T00:24:48.316Z,18.23
2018-11-02T00:29:51.934Z,19.57
2018-11-02T00:34:56.213Z,22.03
2018-11-02T00:39:59.747Z,24.30
2018-11-02T00:45:03.766Z,27.23
2018-11-02T00:50:09.304Z,19.50
2018-11-02T00:55:12.610Z,25.87
2018-11-02T01:00:17.041Z,21.20
2018-11-02T01:05:20.712Z,15.00
2018-11-02T01:10:26.993Z,22.10
2018-11-02T01:15:30.816Z,22.97
2018-11-02T01:20:34.328Z,20.43
2018-11-02T01:25:37.742Z,21.70
2018-11-02T01:30:43.370Z,22.50
2018-11-02T01:41:05.828Z,27.57
2018-11-02T01:46:19.477Z,22.20
2018-11-02T01:51:30.746Z,22.53
2018-11-02T01:56:35.775Z,19.97
2018-11-02T02:01:40.188Z,24.83
2018-11-02T02:06:44.452Z,19.27
2018-11-02T02:11:48.054Z,23.37
2018-11-02T02:16:52.417Z,22.10
2018-11-02T02:21:56.169Z,21.47
2018-11-02T02:27:00.333Z,14.37
2018-11-02T02:32:04.200Z,24.97
2018-11-02T02:37:08.093Z,24.60
2018-11-02T02:42:18.457Z,24.63
2018-11-02T02:47:22.038Z,24.17
2018-11-02T02:52:27.195Z,20.90
2018-11-02T02:57:30.570Z,22.87
2018-11-02T03:02:34.104Z,24.00
2018-11-02T03:07:37.940Z,21.77
2018-11-02T03:12:41.806Z,24.43
2018-11-02T03:17:45.209Z,31.73
2018-11-02T03:22:48.622Z,24.43
2018-11-02T03:27:51.886Z,32.87
2018-11-02T03:32:55.576Z,30.43
2018-11-02T03:37:59.464Z,20.00
2018-11-02T03:43:03.210Z,36.30
2018-11-02T03:48:06.607Z,36.37
2018-11-02T03:53:10.895Z,39.10
2018-11-02T03:58:14.135Z,31.47
2018-11-02T04:03:17.685Z,51.27
2018-11-02T04:08:22.335Z,38.60
2018-11-02T04:13:26.127Z,36.70
2018-11-02T04:18:31.035Z,29.87
2018-11-02T04:23:34.980Z,30.60
2018-11-02T04:28:38.863Z,35.40
2018-11-02T04:33:42.366Z,27.50
2018-11-02T04:38:46.001Z,28.80
2018-11-02T04:43:49.523Z,24.73
2018-11-02T04:48:54.056Z,33.57
2018-11-02T04:53:57.921Z,32.07
2018-11-02T04:59:01.657Z,28.80
2018-11-02T05:04:05.489Z,24.90
2018-11-02T05:09:09.839Z,24.27
2018-11-02T05:14:13.491Z,30.70
2018-11-02T05:19:17.842Z,30.90
2018-11-02T05:24:25.643Z,19.10
2018-11-02T05:29:29.141Z,27.97
2018-11-02T05:34:33.092Z,35.80
2018-11-02T05:39:36.672Z,29.97
2018-11-02T05:44:43.987Z,36.93
2018-11-02T05:49:47.685Z,30.53
2018-11-02T05:54:51.302Z,40.83
2018-11-02T05:59:54.730Z,31.80
2018-11-02T06:04:58.375Z,36.37
2018-11-02T06:10:01.667Z,31.47
2018-11-02T06:15:04.952Z,32.10
2018-11-02T06:20:09.463Z,36.60
2018-11-02T06:25:17.884Z,23.40
2018-11-02T06:30:24.162Z,36.43
2018-11-02T06:35:27.589Z,42.27
2018-11-02T06:40:31.740Z,32.40
2018-11-02T06:45:35.480Z,32.80
2018-11-02T06:50:42.512Z,38.30
2018-11-02T06:55:46.516Z,30.23
2018-11-02T07:00:49.799Z,31.10
2018-11-02T07:05:53.001Z,32.47
2018-11-02T07:10:56.940Z,30.40
2018-11-02T07:16:00.272Z,27.10
2018-11-02T07:21:04.039Z,22.87
2018-11-02T07:26:08.083Z,32.47
2018-11-02T07:31:12.936Z,23.60
2018-11-02T07:36:17.631Z,18.80
2018-11-02T07:41:21.146Z,28.93
2018-11-02T07:46:24.512Z,30.40
2018-11-02T07:51:32.192Z,34.20
2018-11-02T07:56:36.157Z,26.20
2018-11-02T08:01:39.981Z,28.40
2018-11-02T08:06:43.712Z,23.03
2018-11-02T08:11:48.427Z,19.83
2018-11-02T08:16:59.064Z,26.43
2018-11-02T08:22:05.090Z,16.97
2018-11-02T08:27:13.437Z,24.00
2018-11-02T08:32:19.503Z,14.10
2018-11-02T08:37:23.703Z,23.90
2018-11-02T08:42:27.576Z,22.37
2018-11-02T08:47:31.698Z,13.70
2018-11-02T08:52:35.141Z,17.70
2018-11-02T08:57:39.102Z,17.57
2018-11-02T09:02:42.641Z,14.90
2018-11-02T09:07:46.181Z,20.30
2018-11-02T09:12:50.670Z,32.77
2018-11-02T09:17:54.100Z,26.40
2018-11-02T09:22:57.862Z,26.33
2018-11-02T09:28:01.870Z,28.37
2018-11-02T09:33:05.524Z,30.57
2018-11-02T09:38:08.912Z,31.33
2018-11-02T09:43:12.868Z,29.17
2018-11-02T09:48:18.538Z,29.23
2018-11-02T09:53:27.195Z,33.93
2018-11-02T09:58:31.633Z,27.03
2018-11-02T10:03:35.141Z,21.60
2018-11-02T10:08:38.824Z,11.30
2018-11-02T10:13:42.490Z,8.73
2018-11-02T10:18:45.998Z,4.73
2018-11-02T10:23:52.017Z,4.50
2018-11-02T10:28:55.709Z,4.40
2018-11-02T10:34:01.348Z,4.70
2018-11-02T10:39:07.926Z,4.87
2018-11-02T10:44:12.886Z,3.80
2018-11-02T10:49:17.727Z,3.33
2018-11-02T10:54:21.197Z,4.00
2018-11-02T10:59:24.568Z,3.30
2018-11-02T11:04:28.141Z,3.70
2018-11-02T11:09:32.008Z,3.10
2018-11-02T11:14:36.894Z,2.40
2018-11-02T11:19:41.707Z,2.77
2018-11-02T11:25:07.230Z,3.23
2018-11-02T11:30:17.415Z,2.00
2018-11-02T11:35:21.577Z,2.60
2018-11-02T11:40:25.392Z,2.20
2018-11-02T11:45:29.952Z,3.17
2018-11-02T11:50:34.211Z,1.77
2018-11-02T11:55:38.864Z,2.13
2018-11-02T12:00:42.670Z,1.77
2018-11-02T12:05:45.885Z,2.10
2018-11-02T12:10:49.910Z,1.60
2018-11-02T12:15:53.328Z,3.00
2018-11-02T12:20:56.521Z,2.70
2018-11-02T12:26:00.463Z,2.50
2018-11-02T12:31:05.130Z,3.60
2018-11-02T12:36:18.567Z,4.47
2018-11-02T12:41:23.878Z,2.50
2018-11-02T12:46:30.664Z,3.50
2018-11-02T12:51:34.266Z,2.47
2018-11-02T12:56:38.316Z,1.43
2018-11-02T13:01:42.219Z,2.30
2018-11-02T13:06:49.673Z,2.10
2018-11-02T13:11:53.344Z,1.70
2018-11-02T13:16:56.936Z,1.93
2018-11-02T13:22:02.396Z,1.70
2018-11-02T13:27:10.791Z,1.50
2018-11-02T13:32:15.632Z,2.80
2018-11-02T13:37:19.367Z,2.30
2018-11-02T13:42:22.827Z,2.63
2018-11-02T13:47:26.592Z,2.50
2018-11-02T13:52:30.046Z,1.80
2018-11-02T13:57:33.904Z,2.07
2018-11-02T14:02:37.363Z,2.70
2018-11-02T14:07:41.195Z,2.40
2018-11-02T14:12:45.114Z,2.73
2018-11-02T14:17:48.709Z,3.37
2018-11-02T14:22:53.685Z,3.20
2018-11-02T14:27:57.577Z,3.57
2018-11-02T14:33:01.065Z,1.77
2018-11-02T14:38:05.169Z,2.90
2018-11-02T14:43:08.946Z,2.90
2018-11-02T14:48:12.500Z,2.67
2018-11-02T14:53:19.685Z,3.03
2018-11-02T14:58:23.666Z,2.90
2018-11-02T15:03:28.829Z,2.43
2018-11-02T15:08:33.570Z,3.57
2018-11-02T15:13:37.547Z,2.40
2018-11-02T15:18:41.743Z,1.83
2018-11-02T15:23:45.345Z,2.70
2018-11-02T15:28:55.025Z,2.40
2018-11-02T15:33:59.287Z,2.90
2018-11-02T15:39:05.007Z,2.10
2018-11-02T15:44:08.724Z,3.10
2018-11-02T15:49:40.939Z,3.03
2018-11-02T15:54:44.779Z,2.60
2018-11-02T15:59:48.515Z,3.13
2018-11-02T16:04:51.810Z,3.57
2018-11-02T16:09:55.677Z,3.60
2018-11-02T16:14:59.166Z,2.77
2018-11-02T16:20:03.263Z,2.27
2018-11-02T16:25:09.098Z,3.93
2018-11-02T16:30:14.377Z,3.87
2018-11-02T16:35:18.072Z,2.80
2018-11-02T16:40:22.967Z,3.07
2018-11-02T16:45:26.751Z,4.70
2018-11-02T16:50:30.202Z,4.20
2018-11-02T16:55:34.969Z,4.80
2018-11-02T17:00:48.191Z,4.83
2018-11-02T17:05:54.868Z,4.30
2018-11-02T17:11:07.937Z,3.63
2018-11-02T17:16:23.127Z,5.40
2018-11-02T17:21:28.113Z,2.80
2018-11-02T17:26:31.884Z,2.10
2018-11-02T17:31:42.441Z,2.40
2018-11-02T17:36:48.302Z,2.17
2018-11-02T17:41:51.494Z,1.90
2018-11-02T17:46:55.446Z,2.53
2018-11-02T17:51:59.310Z,2.33
2018-11-02T17:57:02.947Z,2.47
2018-11-02T18:02:07.595Z,2.87
2018-11-02T18:07:11.122Z,1.73
2018-11-02T18:12:16.988Z,3.70
2018-11-02T18:17:20.907Z,4.00
2018-11-02T18:22:25.085Z,4.10
2018-11-02T18:27:28.601Z,4.17
2018-11-02T18:32:32.090Z,4.23
2018-11-02T18:37:36.040Z,3.97
2018-11-02T18:48:02.179Z,3.67
2018-11-02T18:53:06.648Z,4.10
2018-11-02T18:58:11.350Z,4.83
2018-11-02T19:03:15.006Z,3.80
2018-11-02T19:08:18.414Z,2.40
2018-11-02T19:13:22.096Z,3.83
2018-11-02T19:18:59.962Z,4.20
2018-11-02T19:24:10.533Z,4.57
2018-11-02T19:29:14.633Z,4.70
2018-11-02T19:34:19.119Z,3.73
2018-11-02T19:39:22.689Z,4.80
2018-11-02T19:44:28.651Z,3.57
2018-11-02T19:49:35.319Z,3.47
2018-11-02T19:54:39.080Z,3.90
2018-11-02T19:59:44.614Z,3.63
2018-11-02T20:04:50.195Z,3.93
2018-11-02T20:09:55.302Z,3.60
2018-11-02T20:14:58.546Z,4.57
2018-11-02T20:20:02.423Z,8.60
2018-11-02T20:25:13.695Z,4.50
2018-11-02T20:30:18.746Z,2.70
2018-11-02T20:35:24.459Z,3.57
2018-11-02T20:40:33.545Z,3.57
2018-11-02T20:45:42.115Z,2.87
2018-11-02T20:50:54.861Z,3.27
2018-11-02T20:55:59.692Z,3.10
2018-11-02T21:01:03.399Z,3.30
2018-11-02T21:06:07.983Z,4.67
2018-11-02T21:11:16.130Z,2.93
2018-11-02T21:16:21.360Z,3.40
2018-11-02T21:21:25.990Z,3.40
2018-11-02T21:26:35.734Z,3.30
2018-11-02T21:31:46.422Z,3.03
2018-11-02T21:36:51.705Z,3.17
2018-11-02T21:47:44.630Z,3.23
2018-11-02T21:52:55.906Z,2.83
2018-11-02T21:58:06.963Z,3.57
2018-11-02T22:03:10.460Z,3.90
2018-11-02T22:08:29.080Z,2.60
2018-11-02T22:13:32.810Z,2.90
2018-11-02T22:18:36.294Z,2.90
2018-11-02T22:23:55.373Z,3.10
2018-11-02T22:28:59.696Z,3.20
2018-11-02T22:34:05.758Z,2.40
2018-11-02T22:39:11.102Z,2.50
2018-11-02T22:44:15.427Z,2.77
2018-11-02T22:49:19.107Z,2.93
2018-11-02T22:54:22.326Z,3.37
2018-11-02T22:59:26.250Z,2.67
2018-11-02T23:04:32.865Z,3.60
2018-11-02T23:09:38.187Z,3.50
2018-11-02T23:14:41.661Z,3.40
2018-11-02T23:19:45.041Z,2.80
2018-11-02T23:24:48.948Z,3.20
2018-11-02T23:29:52.453Z,3.77
2018-11-02T23:34:56.672Z,2.97
2018-11-02T23:40:01.827Z,3.83
2018-11-02T23:45:06.175Z,3.07
2018-11-02T23:50:10.285Z,2.90
2018-11-02T23:55:13.689Z,2.50
